Terminal Aerodrome Forecast
Issued by NWS Spokane, WA

Home | Current Version | Previous Version | Text Only | Print | Product List | Glossary On
Versions: 1 2 3 4 5 6 7 8 9 10 11 12 13 14 15 16 17 18 19 20 21 22 23 24 25 26
000
FTUS46 KOTX 241306 AAA
TAFGEG
TAF AMD
KGEG 241306Z 2413/2512 18008KT P6SM FEW003 SCT050 OVC250
     FM250000 20008KT P6SM BKN050
     FM250700 17006KT P6SM BKN050 BKN250=

USA.gov is the U.S. government's official web portal to all federal, state and local government web resources and services.